Time;durP1;ratioP1;P1;durP2;ratioP2;P2;SDS_P1;SDS_P2;PMS_P1;PMS_P2;Temp;Humidity;BMP_temperature;BMP_pressure;BME280_temperature;BME280_humidity;BME280_pressure;Samples;Min_cycle;Max_cycle;Signal;HPM_P1;HPM_P2
2022/02/15 00:04:19;;;;;;;7.30;1.35;;;7.00;99.90;;;;;;6687876;88;20626;-78
2022/02/15 00:14:20;;;;;;;4.30;1.15;;;7.00;99.90;;;;;;6686783;88;20252;-78
2022/02/15 00:24:21;;;;;;;7.03;1.17;;;7.10;99.90;;;;;;6697551;88;20215;-77
2022/02/15 00:34:22;;;;;;;3.10;1.00;;;7.20;99.90;;;;;;6686220;88;20193;-77
2022/02/15 00:44:22;;;;;;;4.30;1.17;;;7.40;99.90;;;;;;6688794;88;20231;-77
2022/02/15 00:54:23;;;;;;;4.37;0.98;;;7.50;99.90;;;;;;6689613;88;20248;-77
2022/02/15 01:04:24;;;;;;;6.53;1.02;;;7.50;99.90;;;;;;6687972;88;20232;-78
2022/02/15 01:14:25;;;;;;;4.43;1.65;;;7.50;99.90;;;;;;6688942;88;20188;-77
2022/02/15 01:24:26;;;;;;;6.47;1.60;;;7.10;99.90;;;;;;6692045;88;20998;-77
2022/02/15 01:34:26;;;;;;;5.95;1.60;;;6.90;99.90;;;;;;6689670;88;20201;-77
2022/02/15 01:44:27;;;;;;;2.85;1.30;;;6.90;99.90;;;;;;6686529;88;21128;-77
2022/02/15 01:54:28;;;;;;;8.05;1.70;;;6.90;99.90;;;;;;6686518;88;20188;-77
2022/02/15 02:15:06;;;;;;;6.50;1.30;;;6.80;99.90;;;;;;6686594;88;20188;-78
2022/02/15 02:25:09;;;;;;;8.13;1.40;;;6.80;99.90;;;;;;6669484;89;20235;-77
2022/02/15 02:35:10;;;;;;;4.37;1.05;;;6.80;99.90;;;;;;6669733;89;20711;-77
2022/02/15 02:45:15;;;;;;;6.25;0.90;;;7.20;99.90;;;;;;6673075;88;20217;-77
2022/02/15 02:55:15;;;;;;;5.20;1.10;;;7.30;99.90;;;;;;6681186;88;20713;-77
2022/02/15 03:05:16;;;;;;;3.28;0.90;;;7.30;99.90;;;;;;6683110;88;20217;-77
2022/02/15 03:15:16;;;;;;;3.95;1.17;;;7.40;99.90;;;;;;6684032;88;20791;-77
2022/02/15 03:25:17;;;;;;;3.62;1.00;;;7.50;99.90;;;;;;6683034;88;20334;-78
2022/02/15 03:35:19;;;;;;;2.53;1.00;;;7.50;99.90;;;;;;6683039;88;20218;-78
2022/02/15 03:45:19;;;;;;;2.40;1.00;;;7.40;99.90;;;;;;6682522;88;20808;-78
2022/02/15 03:55:20;;;;;;;4.20;1.10;;;7.60;99.90;;;;;;6673927;88;20271;-78
2022/02/15 04:05:22;;;;;;;2.72;0.90;;;7.40;99.90;;;;;;6685428;88;20545;-79
2022/02/15 04:15:23;;;;;;;5.37;1.60;;;7.50;99.90;;;;;;6690124;88;20743;-77
2022/02/15 04:25:23;;;;;;;4.45;1.50;;;7.40;99.90;;;;;;6683803;89;20566;-78
2022/02/15 04:35:24;;;;;;;4.03;1.40;;;7.50;99.90;;;;;;6681978;89;20694;-77
2022/02/15 04:45:24;;;;;;;3.37;1.20;;;7.50;99.90;;;;;;6684412;89;20698;-78
2022/02/15 04:55:25;;;;;;;3.12;1.40;;;7.50;99.90;;;;;;6685462;88;20680;-77
2022/02/15 05:05:25;;;;;;;8.05;2.50;;;7.40;99.90;;;;;;6684165;89;20198;-78
2022/02/15 05:15:26;;;;;;;4.57;2.62;;;7.30;99.90;;;;;;6691450;88;20190;-77
2022/02/15 05:25:26;;;;;;;6.97;3.00;;;7.20;99.90;;;;;;6674034;88;20326;-78
2022/02/15 05:35:27;;;;;;;6.45;2.30;;;6.90;99.90;;;;;;6683140;88;20191;-77
2022/02/15 05:45:28;;;;;;;5.20;2.20;;;6.80;99.90;;;;;;6686723;88;20291;-77
2022/02/15 05:55:51;;;;;;;4.25;2.10;;;6.70;99.90;;;;;;6696395;77;20647;-77
2022/02/15 06:05:51;;;;;;;5.12;2.65;;;6.80;99.90;;;;;;6616808;89;20613;-77
2022/02/15 06:15:52;;;;;;;4.35;2.50;;;6.50;99.90;;;;;;6608309;89;20222;-77
2022/02/15 06:25:52;;;;;;;4.40;2.30;;;6.40;99.90;;;;;;6621326;89;20213;-77
2022/02/15 06:35:53;;;;;;;5.37;2.60;;;6.50;99.90;;;;;;6613156;89;20198;-77
2022/02/15 06:45:54;;;;;;;8.20;3.08;;;6.50;99.90;;;;;;6620285;89;20240;-79
2022/02/15 06:55:54;;;;;;;7.00;3.70;;;6.50;99.90;;;;;;6606924;88;20224;-78
2022/02/15 07:05:55;;;;;;;9.20;4.10;;;6.40;99.90;;;;;;6615573;89;21010;-78
2022/02/15 07:15:56;;;;;;;9.65;4.90;;;6.30;99.90;;;;;;6628106;89;20197;-79
2022/02/15 07:25:56;;;;;;;7.00;3.90;;;6.30;99.90;;;;;;6621314;88;20230;-78
2022/02/15 07:35:57;;;;;;;6.80;3.67;;;6.30;99.90;;;;;;6611711;89;20660;-78
2022/02/15 07:45:57;;;;;;;4.80;3.03;;;6.30;99.90;;;;;;6614846;89;20313;-78
2022/02/15 07:55:58;;;;;;;5.50;2.70;;;6.30;99.90;;;;;;6608815;89;20191;-76
2022/02/15 08:05:58;;;;;;;6.03;3.00;;;6.60;99.90;;;;;;6605296;89;20613;-76
2022/02/15 08:15:59;;;;;;;6.72;3.05;;;6.70;99.90;;;;;;6604184;89;20587;-75
2022/02/15 08:25:59;;;;;;;6.57;3.00;;;6.80;99.90;;;;;;6601165;89;20256;-76
2022/02/15 08:36:00;;;;;;;6.37;3.50;;;6.70;99.90;;;;;;6601229;89;20892;-76
2022/02/15 08:46:00;;;;;;;6.10;3.62;;;7.00;99.90;;;;;;6610603;89;20203;-76
2022/02/15 08:56:01;;;;;;;5.80;3.35;;;7.00;99.90;;;;;;6606082;89;20216;-76
2022/02/15 09:06:02;;;;;;;4.35;2.53;;;8.10;99.90;;;;;;6608119;89;20206;-75
2022/02/15 09:16:03;;;;;;;6.53;2.60;;;9.50;99.90;;;;;;6600865;89;20714;-75
2022/02/15 09:26:05;;;;;;;5.18;2.45;;;10.40;99.90;;;;;;6605359;89;20194;-76
2022/02/15 09:36:05;;;;;;;6.93;2.47;;;10.90;99.90;;;;;;6603863;89;20210;-76
2022/02/15 09:46:08;;;;;;;6.30;2.55;;;10.80;99.90;;;;;;6609761;89;21180;-76
2022/02/15 09:56:09;;;;;;;6.93;2.70;;;10.00;99.90;;;;;;6602069;89;20237;-76
2022/02/15 10:06:12;;;;;;;4.93;2.50;;;9.80;99.90;;;;;;6601209;89;20634;-76
2022/02/15 10:16:15;;;;;;;6.55;3.10;;;9.40;99.90;;;;;;6601657;89;20219;-76
2022/02/15 10:26:15;;;;;;;5.87;2.53;;;9.40;99.90;;;;;;6603865;89;20228;-76
2022/02/15 10:36:16;;;;;;;5.90;2.90;;;9.30;99.90;;;;;;6602285;89;20202;-77
2022/02/15 10:46:19;;;;;;;7.28;2.45;;;9.20;99.90;;;;;;6604565;88;20231;-76
2022/02/15 10:56:19;;;;;;;3.40;2.20;;;9.40;99.90;;;;;;6602568;89;20230;-76
2022/02/15 11:06:20;;;;;;;5.37;2.40;;;9.10;99.90;;;;;;6610738;88;20230;-76
2022/02/15 11:16:22;;;;;;;6.03;2.40;;;9.10;99.90;;;;;;6634887;88;20664;-78
2022/02/15 11:26:40;;;;;;;4.87;2.42;;;9.30;99.90;;;;;;6597412;90;20491;-76
2022/02/15 11:36:46;;;;;;;5.20;2.10;;;9.40;99.90;;;;;;6609315;89;20283;-77
2022/02/15 11:46:47;;;;;;;4.23;2.23;;;9.20;99.90;;;;;;6611193;89;20453;-77
2022/02/15 11:56:49;;;;;;;4.85;1.75;;;9.00;99.90;;;;;;6608344;89;20624;-78
2022/02/15 12:06:51;;;;;;;3.60;1.35;;;10.00;99.90;;;;;;6601352;89;20735;-75
2022/02/15 12:16:59;;;;;;;2.42;1.00;;;9.70;99.90;;;;;;6600055;89;20739;-76
2022/02/15 12:27:03;;;;;;;1.65;0.80;;;10.90;99.90;;;;;;6602884;89;20207;-76
2022/02/15 12:37:03;;;;;;;4.53;0.80;;;11.10;98.70;;;;;;6598522;89;20206;-78
2022/02/15 12:47:04;;;;;;;2.50;0.77;;;11.50;97.30;;;;;;6601774;89;20199;-76
2022/02/15 12:57:15;;;;;;;2.45;0.90;;;11.90;95.30;;;;;;6605234;89;20198;-77
2022/02/15 13:07:17;;;;;;;4.22;0.60;;;11.20;94.60;;;;;;6599866;88;20650;-78
2022/02/15 13:17:18;;;;;;;3.10;0.70;;;14.30;92.10;;;;;;6603954;89;20214;-77
2022/02/15 13:27:32;;;;;;;3.35;0.68;;;14.90;84.90;;;;;;6607160;89;20213;-77
2022/02/15 13:37:37;;;;;;;1.67;0.60;;;13.10;89.30;;;;;;6599194;89;20204;-77
2022/02/15 13:47:38;;;;;;;;;;;14.90;84.70;;;;;;6600147;89;20308;-76
2022/02/15 13:57:40;;;;;;;2.37;0.60;;;14.10;83.10;;;;;;6599024;89;20488;-77
2022/02/15 14:07:41;;;;;;;1.08;0.40;;;14.80;80.30;;;;;;6603676;89;20308;-77
2022/02/15 14:17:42;;;;;;;1.27;0.40;;;13.50;84.90;;;;;;6606610;89;20221;-78
2022/02/15 14:27:43;;;;;;;1.58;0.40;;;13.60;80.80;;;;;;6604891;89;20498;-76
2022/02/15 14:37:45;;;;;;;2.92;0.50;;;13.90;79.50;;;;;;6601800;89;20189;-76
2022/02/15 14:47:47;;;;;;;3.67;0.52;;;14.00;80.00;;;;;;6605595;89;20820;-78
2022/02/15 14:57:47;;;;;;;2.55;0.40;;;11.70;85.00;;;;;;6598620;89;20217;-76
2022/02/15 15:07:48;;;;;;;2.20;0.55;;;11.70;86.20;;;;;;6602310;89;20230;-76
2022/02/15 15:17:48;;;;;;;2.37;0.40;;;11.50;85.20;;;;;;6602673;89;20676;-77
2022/02/15 15:27:49;;;;;;;2.75;0.47;;;11.30;86.20;;;;;;6598161;89;20200;-75
2022/02/15 15:37:50;;;;;;;4.75;0.80;;;10.60;87.80;;;;;;6604117;88;20336;-76
2022/02/15 15:47:51;;;;;;;2.75;0.60;;;10.20;89.90;;;;;;6610877;89;20267;-76
2022/02/15 15:57:51;;;;;;;2.87;0.57;;;9.90;90.30;;;;;;6599748;89;20174;-76
2022/02/15 16:07:53;;;;;;;3.12;0.65;;;9.70;91.40;;;;;;6602334;89;20691;-75
2022/02/15 16:17:54;;;;;;;3.25;0.85;;;9.60;91.90;;;;;;6605394;88;20586;-78
2022/02/15 16:27:54;;;;;;;29.67;3.62;;;9.50;92.60;;;;;;6615080;89;20213;-79
2022/02/15 16:37:55;;;;;;;4.33;0.80;;;9.40;93.90;;;;;;6609520;89;20257;-76
2022/02/15 16:47:59;;;;;;;1.48;0.57;;;9.10;94.60;;;;;;6603904;89;20550;-74
2022/02/15 16:58:00;;;;;;;3.03;0.60;;;8.70;95.80;;;;;;6625966;89;20260;-74
2022/02/15 17:08:00;;;;;;;2.10;0.50;;;8.80;96.50;;;;;;6635411;88;20228;-75
2022/02/15 17:18:01;;;;;;;4.37;0.50;;;8.60;97.30;;;;;;6605077;89;20228;-74
2022/02/15 17:28:02;;;;;;;2.95;0.60;;;8.50;98.20;;;;;;6604984;89;20207;-76
2022/02/15 17:38:03;;;;;;;5.55;0.75;;;8.60;98.80;;;;;;6608231;89;20193;-75
2022/02/15 17:48:05;;;;;;;3.90;0.57;;;8.40;99.70;;;;;;6617635;89;20256;-75
2022/02/15 17:58:05;;;;;;;2.55;0.70;;;8.50;99.90;;;;;;6607074;89;20625;-74
2022/02/15 18:08:07;;;;;;;1.87;0.40;;;8.50;99.90;;;;;;6612484;89;20245;-74
2022/02/15 18:18:08;;;;;;;2.20;0.65;;;8.60;99.90;;;;;;6612495;89;20187;-75
2022/02/15 18:28:09;;;;;;;3.80;0.88;;;8.60;99.90;;;;;;6603340;89;20330;-75
2022/02/15 18:38:09;;;;;;;7.45;0.90;;;8.60;99.90;;;;;;6603858;89;20252;-76
2022/02/15 18:48:10;;;;;;;5.43;1.20;;;8.70;99.90;;;;;;6607947;89;20197;-75
2022/02/15 18:58:10;;;;;;;7.80;1.10;;;8.70;99.90;;;;;;6612385;89;20268;-75
2022/02/15 19:08:11;;;;;;;3.95;0.93;;;8.80;99.90;;;;;;6606208;88;20536;-76
2022/02/15 19:18:11;;;;;;;5.20;1.00;;;8.90;99.90;;;;;;6608793;89;20198;-78
2022/02/15 19:28:12;;;;;;;3.85;1.00;;;8.70;99.90;;;;;;6611850;89;20536;-77
2022/02/15 19:38:13;;;;;;;5.57;1.02;;;8.90;99.90;;;;;;6607470;89;20195;-77
2022/02/15 19:48:14;;;;;;;4.32;1.23;;;8.90;99.90;;;;;;6608989;89;20697;-77
2022/02/15 19:58:15;;;;;;;4.82;1.10;;;8.90;99.90;;;;;;6611607;89;20223;-77
2022/02/15 20:08:15;;;;;;;4.47;0.85;;;8.70;99.90;;;;;;6599813;89;20194;-76
2022/02/15 20:18:16;;;;;;;6.55;0.80;;;8.70;99.90;;;;;;6606087;89;20350;-77
2022/02/15 20:28:17;;;;;;;4.68;1.10;;;8.70;99.90;;;;;;6606552;88;20194;-77
2022/02/15 20:38:17;;;;;;;3.75;0.65;;;8.60;99.90;;;;;;6613379;89;20206;-77
2022/02/15 20:48:22;;;;;;;2.92;0.50;;;8.60;99.90;;;;;;6624584;89;20202;-77
2022/02/15 20:58:25;;;;;;;3.85;0.80;;;8.60;99.90;;;;;;6634037;88;20283;-76
2022/02/15 21:08:25;;;;;;;1.62;0.80;;;8.50;99.90;;;;;;6618364;89;20190;-76
2022/02/15 21:18:26;;;;;;;1.45;0.50;;;8.60;99.90;;;;;;6617706;89;20716;-77
2022/02/15 21:28:26;;;;;;;1.67;0.60;;;8.50;99.90;;;;;;6614121;89;20191;-77
2022/02/15 21:38:27;;;;;;;2.05;0.80;;;8.60;99.90;;;;;;6616211;88;20546;-77
2022/02/15 21:48:28;;;;;;;3.22;0.60;;;8.60;99.90;;;;;;6618514;89;20237;-77
2022/02/15 21:58:28;;;;;;;2.28;0.50;;;8.50;99.90;;;;;;6617157;89;20765;-76
2022/02/15 22:08:29;;;;;;;2.45;0.50;;;8.50;99.90;;;;;;6618047;88;20189;-77
2022/02/15 22:18:30;;;;;;;1.98;0.50;;;8.40;99.90;;;;;;6606924;89;20608;-76
2022/02/15 22:28:31;;;;;;;2.30;0.43;;;8.50;99.90;;;;;;6608344;89;20206;-77
2022/02/15 22:38:32;;;;;;;1.20;0.50;;;8.50;99.90;;;;;;6612530;89;20195;-77
2022/02/15 22:48:32;;;;;;;1.98;0.40;;;8.50;99.90;;;;;;6614387;89;20697;-76
2022/02/15 22:58:33;;;;;;;0.85;0.30;;;8.50;99.90;;;;;;6606738;89;20243;-76
2022/02/15 23:18:52;;;;;;;1.75;0.30;;;8.60;99.90;;;;;;6616258;89;20202;-76
2022/02/15 23:28:53;;;;;;;0.88;0.37;;;8.60;99.90;;;;;;6622668;89;20216;-77
2022/02/15 23:38:54;;;;;;;2.20;0.47;;;8.60;99.90;;;;;;6616315;89;20671;-76
2022/02/15 23:48:54;;;;;;;1.20;0.47;;;8.60;99.90;;;;;;6618120;89;20196;-77
2022/02/15 23:59:15;;;;;;;1.42;0.30;;;8.70;99.90;;;;;;6645843;77;20516;-79
